Limestone, Michigan
Current Conditions -  °F | °C
As of 2:45 PM on Thursday 18 Dec 2014 (Local Time) from KSAW Reporting Station
Scattered Clouds Scattered Clouds  
Wind Chill: 16°   Ceiling: Unl
Heat Index: 25°   Visibility: 10mi
Dew Point: 18°   Wind: 8mph
Humidity: 74%   Direction: 30°NNE
Pressure: 30.21"   Gusts: NA
Location:  46.2903°N, 86.758°W
Report Text: KSAW 181945Z 03007KT 10SM SCT035 M04/M08 A3021
Loading
Personal Weather Stations






























Interactive Weather Map New forecast layout! Learn more

10-Day Weather Forecast

Advertisements
Track Severe Weather on mobile